sensor_id;sensor_type;location;lat;lon;timestamp;pressure;altitude;pressure_sealevel;temperature;humidity
30302;BME280;17111;52.130;5.028;2023-05-27T00:02:10;103151.25;;;20.90;47.04
30302;BME280;17111;52.130;5.028;2023-05-27T00:04:37;103144.09;;;20.89;47.44
30302;BME280;17111;52.130;5.028;2023-05-27T00:07:03;103149.50;;;20.89;47.11
30302;BME280;17111;52.130;5.028;2023-05-27T00:09:30;103152.31;;;20.88;47.68
30302;BME280;17111;52.130;5.028;2023-05-27T00:11:57;103147.91;;;20.87;47.16
30302;BME280;17111;52.130;5.028;2023-05-27T00:14:24;103144.34;;;20.86;47.76
30302;BME280;17111;52.130;5.028;2023-05-27T00:16:50;103152.56;;;20.85;47.29
30302;BME280;17111;52.130;5.028;2023-05-27T00:19:18;103143.75;;;20.83;47.28
30302;BME280;17111;52.130;5.028;2023-05-27T00:21:44;103144.69;;;20.82;47.83
30302;BME280;17111;52.130;5.028;2023-05-27T00:24:11;103135.75;;;20.81;47.37
30302;BME280;17111;52.130;5.028;2023-05-27T00:26:37;103128.66;;;20.80;47.88
30302;BME280;17111;52.130;5.028;2023-05-27T00:29:05;103132.19;;;20.81;47.85
30302;BME280;17111;52.130;5.028;2023-05-27T00:31:32;103132.31;;;20.79;47.20
30302;BME280;17111;52.130;5.028;2023-05-27T00:33:59;103125.19;;;20.78;47.83
30302;BME280;17111;52.130;5.028;2023-05-27T00:36:25;103124.34;;;20.78;47.49
30302;BME280;17111;52.130;5.028;2023-05-27T00:38:52;103115.53;;;20.76;47.73
30302;BME280;17111;52.130;5.028;2023-05-27T00:41:19;103124.59;;;20.75;47.51
30302;BME280;17111;52.130;5.028;2023-05-27T00:43:46;103121.00;;;20.74;47.45
30302;BME280;17111;52.130;5.028;2023-05-27T00:46:12;103112.19;;;20.72;47.35
30302;BME280;17111;52.130;5.028;2023-05-27T00:48:39;103120.41;;;20.70;47.94
30302;BME280;17111;52.130;5.028;2023-05-27T00:51:06;103108.88;;;20.68;47.50
30302;BME280;17111;52.130;5.028;2023-05-27T00:53:39;103108.88;;;20.68;47.60
30302;BME280;17111;52.130;5.028;2023-05-27T00:56:10;103113.41;;;20.68;47.47
30302;BME280;17111;52.130;5.028;2023-05-27T00:58:37;103113.53;;;20.66;47.69
30302;BME280;17111;52.130;5.028;2023-05-27T01:01:04;103115.34;;;20.66;47.72
30302;BME280;17111;52.130;5.028;2023-05-27T01:03:32;103119.16;;;20.63;47.83
30302;BME280;17111;52.130;5.028;2023-05-27T01:06:22;103127.22;;;20.63;48.10
30302;BME280;17111;52.130;5.028;2023-05-27T01:09:03;103123.69;;;20.63;47.87
30302;BME280;17111;52.130;5.028;2023-05-27T01:11:43;103113.84;;;20.62;47.93
30302;BME280;17111;52.130;5.028;2023-05-27T01:14:13;103112.03;;;20.62;47.56
30302;BME280;17111;52.130;5.028;2023-05-27T01:16:41;103118.38;;;20.61;48.22
30302;BME280;17111;52.130;5.028;2023-05-27T01:19:19;103116.69;;;20.60;47.83
30302;BME280;17111;52.130;5.028;2023-05-27T01:21:52;103118.50;;;20.60;47.41
30302;BME280;17111;52.130;5.028;2023-05-27T01:24:19;103117.66;;;20.59;47.42
30302;BME280;17111;52.130;5.028;2023-05-27T01:26:46;103115.94;;;20.58;48.06
30302;BME280;17111;52.130;5.028;2023-05-27T01:29:13;103114.19;;;20.57;48.05
30302;BME280;17111;52.130;5.028;2023-05-27T01:34:23;103106.34;;;20.54;47.78
30302;BME280;17111;52.130;5.028;2023-05-27T01:37:03;103106.34;;;20.54;47.94
30302;BME280;17111;52.130;5.028;2023-05-27T01:39:32;103109.91;;;20.55;47.57
30302;BME280;17111;52.130;5.028;2023-05-27T01:41:59;103103.78;;;20.53;48.00
30302;BME280;17111;52.130;5.028;2023-05-27T01:44:30;103111.00;;;20.52;47.96
30302;BME280;17111;52.130;5.028;2023-05-27T01:47:00;103111.00;;;20.52;48.08
30302;BME280;17111;52.130;5.028;2023-05-27T01:49:29;103113.69;;;20.52;47.88
30302;BME280;17111;52.130;5.028;2023-05-27T01:51:56;103116.50;;;20.51;47.76
30302;BME280;17111;52.130;5.028;2023-05-27T01:54:22;103114.78;;;20.50;47.65
30302;BME280;17111;52.130;5.028;2023-05-27T01:56:49;103113.06;;;20.49;47.56
30302;BME280;17111;52.130;5.028;2023-05-27T01:59:16;103122.94;;;20.48;48.29
30302;BME280;17111;52.130;5.028;2023-05-27T02:01:42;103115.84;;;20.47;47.65
30302;BME280;17111;52.130;5.028;2023-05-27T02:04:09;103115.94;;;20.45;47.71
30302;BME280;17111;52.130;5.028;2023-05-27T02:06:36;103121.47;;;20.44;47.67
30302;BME280;17111;52.130;5.028;2023-05-27T02:09:03;103111.53;;;20.44;47.58
30302;BME280;17111;52.130;5.028;2023-05-27T02:11:30;103108.97;;;20.43;47.70
30302;BME280;17111;52.130;5.028;2023-05-27T02:13:57;103111.75;;;20.41;48.24
30302;BME280;17111;52.130;5.028;2023-05-27T02:16:23;103113.72;;;20.39;47.64
30302;BME280;17111;52.130;5.028;2023-05-27T02:18:51;103102.09;;;20.39;48.31
30302;BME280;17111;52.130;5.028;2023-05-27T02:21:17;103104.78;;;20.39;48.43
30302;BME280;17111;52.130;5.028;2023-05-27T02:23:44;103099.50;;;20.37;48.46
30302;BME280;17111;52.130;5.028;2023-05-27T02:26:11;103101.34;;;20.37;48.35
30302;BME280;17111;52.130;5.028;2023-05-27T02:28:37;103103.16;;;20.36;48.00
30302;BME280;17111;52.130;5.028;2023-05-27T02:31:04;103099.75;;;20.34;48.17
30302;BME280;17111;52.130;5.028;2023-05-27T02:33:30;103106.00;;;20.35;48.21
30302;BME280;17111;52.130;5.028;2023-05-27T02:35:57;103098.00;;;20.33;47.98
30302;BME280;17111;52.130;5.028;2023-05-27T02:38:24;103102.53;;;20.33;47.89
30302;BME280;17111;52.130;5.028;2023-05-27T02:40:51;103106.22;;;20.32;48.42
30302;BME280;17111;52.130;5.028;2023-05-27T02:43:17;103102.66;;;20.31;48.42
30302;BME280;17111;52.130;5.028;2023-05-27T02:45:44;103097.38;;;20.30;48.45
30302;BME280;17111;52.130;5.028;2023-05-27T02:48:11;103098.34;;;20.29;48.23
30302;BME280;17111;52.130;5.028;2023-05-27T02:50:37;103096.63;;;20.28;48.38
30302;BME280;17111;52.130;5.028;2023-05-27T02:53:04;103101.16;;;20.27;48.53
30302;BME280;17111;52.130;5.028;2023-05-27T02:55:30;103102.03;;;20.28;48.13
30302;BME280;17111;52.130;5.028;2023-05-27T02:57:57;103089.63;;;20.25;47.86
30302;BME280;17111;52.130;5.028;2023-05-27T03:00:24;103093.19;;;20.26;48.04
30302;BME280;17111;52.130;5.028;2023-05-27T03:02:51;103090.63;;;20.24;48.04
30302;BME280;17111;52.130;5.028;2023-05-27T03:05:18;103095.22;;;20.22;47.93
30302;BME280;17111;52.130;5.028;2023-05-27T03:07:44;103104.19;;;20.23;47.90
30302;BME280;17111;52.130;5.028;2023-05-27T03:10:11;103098.81;;;20.23;48.46
30302;BME280;17111;52.130;5.028;2023-05-27T03:12:38;103099.75;;;20.21;47.89
30302;BME280;17111;52.130;5.028;2023-05-27T03:15:05;103104.28;;;20.21;47.93
30302;BME280;17111;52.130;5.028;2023-05-27T03:17:36;103106.13;;;20.20;48.37
30302;BME280;17111;52.130;5.028;2023-05-27T03:20:03;103114.22;;;20.20;48.36
30302;BME280;17111;52.130;5.028;2023-05-27T03:22:34;103113.34;;;20.20;48.39
30302;BME280;17111;52.130;5.028;2023-05-27T03:25:02;103110.78;;;20.18;47.92
30302;BME280;17111;52.130;5.028;2023-05-27T03:27:29;103109.91;;;20.18;48.17
30302;BME280;17111;52.130;5.028;2023-05-27T03:29:55;103110.88;;;20.17;48.39
30302;BME280;17111;52.130;5.028;2023-05-27T03:32:22;103101.94;;;20.16;48.48
30302;BME280;17111;52.130;5.028;2023-05-27T03:34:49;103093.88;;;20.16;47.65
30302;BME280;17111;52.130;5.028;2023-05-27T03:37:15;103096.69;;;20.15;48.36
30302;BME280;17111;52.130;5.028;2023-05-27T03:39:42;103094.84;;;20.15;48.08
30302;BME280;17111;52.130;5.028;2023-05-27T03:42:09;103098.53;;;20.14;47.93
30302;BME280;17111;52.130;5.028;2023-05-27T03:44:36;103088.69;;;20.13;48.42
30302;BME280;17111;52.130;5.028;2023-05-27T03:47:02;103094.09;;;20.13;48.50
30302;BME280;17111;52.130;5.028;2023-05-27T03:49:29;103089.69;;;20.12;47.99
30302;BME280;17111;52.130;5.028;2023-05-27T03:51:56;103091.53;;;20.12;48.29
30302;BME280;17111;52.130;5.028;2023-05-27T03:54:23;103085.28;;;20.11;48.42
30302;BME280;17111;52.130;5.028;2023-05-27T03:56:49;103082.59;;;20.11;48.08
30302;BME280;17111;52.130;5.028;2023-05-27T03:59:17;103083.56;;;20.10;48.00
30302;BME280;17111;52.130;5.028;2023-05-27T04:01:47;103088.94;;;20.10;48.13
30302;BME280;17111;52.130;5.028;2023-05-27T04:04:13;103080.00;;;20.10;48.68
30302;BME280;17111;52.130;5.028;2023-05-27T04:06:40;103082.69;;;20.10;48.72
30302;BME280;17111;52.130;5.028;2023-05-27T04:09:08;103088.06;;;20.10;48.49
30302;BME280;17111;52.130;5.028;2023-05-27T04:11:35;103084.50;;;20.09;48.01
30302;BME280;17111;52.130;5.028;2023-05-27T04:14:01;103081.72;;;20.11;48.20
30302;BME280;17111;52.130;5.028;2023-05-27T04:16:28;103075.50;;;20.10;48.56
30302;BME280;17111;52.130;5.028;2023-05-27T04:18:57;103072.88;;;20.09;47.86
30302;BME280;17111;52.130;5.028;2023-05-27T04:21:24;103074.59;;;20.10;48.26
30302;BME280;17111;52.130;5.028;2023-05-27T04:23:51;103074.59;;;20.10;48.08
30302;BME280;17111;52.130;5.028;2023-05-27T04:26:17;103085.38;;;20.10;48.29
30302;BME280;17111;52.130;5.028;2023-05-27T04:28:44;103074.59;;;20.10;48.17
30302;BME280;17111;52.130;5.028;2023-05-27T04:31:12;103081.81;;;20.09;48.61
30302;BME280;17111;52.130;5.028;2023-05-27T04:33:39;103073.75;;;20.09;48.62
30302;BME280;17111;52.130;5.028;2023-05-27T04:36:07;103076.44;;;20.09;48.32
30302;BME280;17111;52.130;5.028;2023-05-27T04:38:34;103078.19;;;20.10;48.05
30302;BME280;17111;52.130;5.028;2023-05-27T04:41:00;103078.19;;;20.10;47.98
30302;BME280;17111;52.130;5.028;2023-05-27T04:43:27;103075.50;;;20.10;48.51
30302;BME280;17111;52.130;5.028;2023-05-27T04:45:57;103069.13;;;20.11;48.43
30302;BME280;17111;52.130;5.028;2023-05-27T04:48:26;103069.97;;;20.12;48.42
30302;BME280;17111;52.130;5.028;2023-05-27T04:50:53;103071.59;;;20.14;47.99
30302;BME280;17111;52.130;5.028;2023-05-27T04:53:20;103080.41;;;20.16;48.40
30302;BME280;17111;52.130;5.028;2023-05-27T04:55:47;103076.72;;;20.17;47.90
30302;BME280;17111;52.130;5.028;2023-05-27T04:58:14;103073.94;;;20.19;47.81
30302;BME280;17111;52.130;5.028;2023-05-27T05:00:41;103061.34;;;20.19;48.45
30302;BME280;17111;52.130;5.028;2023-05-27T05:03:16;103064.75;;;20.21;48.47
30302;BME280;17111;52.130;5.028;2023-05-27T05:05:52;103077.16;;;20.24;48.23
30302;BME280;17111;52.130;5.028;2023-05-27T05:08:20;103068.09;;;20.25;47.55
30302;BME280;17111;52.130;5.028;2023-05-27T05:10:48;103068.00;;;20.27;48.19
30302;BME280;17111;52.130;5.028;2023-05-27T05:13:15;103070.44;;;20.30;48.10
30302;BME280;17111;52.130;5.028;2023-05-27T05:15:42;103058.72;;;20.31;47.94
30302;BME280;17111;52.130;5.028;2023-05-27T05:18:10;103055.88;;;20.32;48.08
30302;BME280;17111;52.130;5.028;2023-05-27T05:20:38;103054.91;;;20.33;47.48
30302;BME280;17111;52.130;5.028;2023-05-27T05:23:04;103061.06;;;20.35;47.82
30302;BME280;17111;52.130;5.028;2023-05-27T05:25:33;103053.69;;;20.37;47.89
30302;BME280;17111;52.130;5.028;2023-05-27T05:28:04;103049.94;;;20.40;47.65
30302;BME280;17111;52.130;5.028;2023-05-27T05:30:31;103056.03;;;20.42;47.61
30302;BME280;17111;52.130;5.028;2023-05-27T05:32:59;103052.41;;;20.43;47.27
30302;BME280;17111;52.130;5.028;2023-05-27T05:35:26;103048.72;;;20.44;47.23
30302;BME280;17111;52.130;5.028;2023-05-27T05:37:52;103045.91;;;20.45;47.44
30302;BME280;17111;52.130;5.028;2023-05-27T05:40:19;103043.97;;;20.48;47.22
30302;BME280;17111;52.130;5.028;2023-05-27T05:42:46;103042.88;;;20.50;47.24
30302;BME280;17111;52.130;5.028;2023-05-27T05:45:12;103047.31;;;20.51;47.08
30302;BME280;17111;52.130;5.028;2023-05-27T05:47:39;103045.34;;;20.53;47.13
30302;BME280;17111;52.130;5.028;2023-05-27T05:50:06;103040.72;;;20.55;47.34
30302;BME280;17111;52.130;5.028;2023-05-27T05:52:32;103037.91;;;20.57;46.85
30302;BME280;17111;52.130;5.028;2023-05-27T05:54:59;103045.00;;;20.58;47.07
30302;BME280;17111;52.130;5.028;2023-05-27T05:57:26;103037.69;;;20.60;47.44
30302;BME280;17111;52.130;5.028;2023-05-27T05:59:52;103039.38;;;20.61;46.74
30302;BME280;17111;52.130;5.028;2023-05-27T06:02:19;103040.25;;;20.61;46.64
30302;BME280;17111;52.130;5.028;2023-05-27T06:04:46;103037.53;;;20.61;46.64
30302;BME280;17111;52.130;5.028;2023-05-27T06:07:13;103035.72;;;20.62;47.08
30302;BME280;17111;52.130;5.028;2023-05-27T06:09:40;103025.81;;;20.62;46.90
30302;BME280;17111;52.130;5.028;2023-05-27T06:12:06;103017.72;;;20.62;46.93
30302;BME280;17111;52.130;5.028;2023-05-27T06:14:33;103024.94;;;20.62;46.22
30302;BME280;17111;52.130;5.028;2023-05-27T06:17:00;103018.59;;;20.63;46.52
30302;BME280;17111;52.130;5.028;2023-05-27T06:19:27;103018.69;;;20.61;47.04
30302;BME280;17111;52.130;5.028;2023-05-27T06:21:53;103018.69;;;20.61;46.62
30302;BME280;17111;52.130;5.028;2023-05-27T06:24:20;103010.59;;;20.61;46.52
30302;BME280;17111;52.130;5.028;2023-05-27T06:26:46;103010.59;;;20.61;47.06
30302;BME280;17111;52.130;5.028;2023-05-27T06:29:13;103007.91;;;20.61;46.78
30302;BME280;17111;52.130;5.028;2023-05-27T06:31:39;103003.50;;;20.60;46.58
30302;BME280;17111;52.130;5.028;2023-05-27T06:34:06;102998.97;;;20.61;46.45
30302;BME280;17111;52.130;5.028;2023-05-27T06:36:33;102999.81;;;20.61;46.51
30302;BME280;17111;52.130;5.028;2023-05-27T06:39:00;102986.34;;;20.61;46.32
30302;BME280;17111;52.130;5.028;2023-05-27T06:41:27;102991.75;;;20.61;46.64
30302;BME280;17111;52.130;5.028;2023-05-27T06:43:53;102997.13;;;20.61;46.44
30302;BME280;17111;52.130;5.028;2023-05-27T06:46:20;102987.22;;;20.62;46.29
30302;BME280;17111;52.130;5.028;2023-05-27T06:48:47;102988.19;;;20.61;46.42
30302;BME280;17111;52.130;5.028;2023-05-27T06:51:14;102981.94;;;20.60;46.06
30302;BME280;17111;52.130;5.028;2023-05-27T06:53:41;102987.34;;;20.60;46.57
30302;BME280;17111;52.130;5.028;2023-05-27T06:56:08;102981.09;;;20.60;46.60
30302;BME280;17111;52.130;5.028;2023-05-27T06:58:34;102971.31;;;20.59;46.18
30302;BME280;17111;52.130;5.028;2023-05-27T07:01:01;102983.91;;;20.58;46.15
30302;BME280;17111;52.130;5.028;2023-05-27T07:03:28;102977.66;;;20.58;46.55
30302;BME280;17111;52.130;5.028;2023-05-27T07:05:55;102979.63;;;20.56;46.18
30302;BME280;17111;52.130;5.028;2023-05-27T07:08:22;102985.84;;;20.56;46.18
30302;BME280;17111;52.130;5.028;2023-05-27T07:10:48;102990.41;;;20.56;46.26
30302;BME280;17111;52.130;5.028;2023-05-27T07:13:15;102983.41;;;20.53;46.29
30302;BME280;17111;52.130;5.028;2023-05-27T07:15:42;102983.41;;;20.53;46.11
30302;BME280;17111;52.130;5.028;2023-05-27T07:18:09;102979.84;;;20.53;46.56
30302;BME280;17111;52.130;5.028;2023-05-27T07:20:35;102970.91;;;20.52;46.67
30302;BME280;17111;52.130;5.028;2023-05-27T07:23:02;102969.06;;;20.53;46.77
30302;BME280;17111;52.130;5.028;2023-05-27T07:25:29;102970.06;;;20.52;46.67
30302;BME280;17111;52.130;5.028;2023-05-27T07:27:56;102967.22;;;20.53;46.52
30302;BME280;17111;52.130;5.028;2023-05-27T07:30:22;102966.25;;;20.54;46.21
30302;BME280;17111;52.130;5.028;2023-05-27T07:32:49;102966.25;;;20.54;46.35
30302;BME280;17111;52.130;5.028;2023-05-27T07:35:16;102970.69;;;20.55;46.30
30302;BME280;17111;52.130;5.028;2023-05-27T07:37:43;102968.72;;;20.57;46.82
30302;BME280;17111;52.130;5.028;2023-05-27T07:40:10;102962.38;;;20.58;46.23
30302;BME280;17111;52.130;5.028;2023-05-27T07:42:36;102963.09;;;20.60;46.61
30302;BME280;17111;52.130;5.028;2023-05-27T07:45:04;102961.25;;;20.61;46.59
30302;BME280;17111;52.130;5.028;2023-05-27T07:47:31;102967.50;;;20.61;46.19
30302;BME280;17111;52.130;5.028;2023-05-27T07:49:58;102956.72;;;20.61;46.49
30302;BME280;17111;52.130;5.028;2023-05-27T07:52:25;102948.41;;;20.64;46.29
30302;BME280;17111;52.130;5.028;2023-05-27T07:54:51;102943.00;;;20.64;46.36
30302;BME280;17111;52.130;5.028;2023-05-27T07:57:21;102941.94;;;20.67;46.37
30302;BME280;17111;52.130;5.028;2023-05-27T07:59:48;102938.25;;;20.68;46.16
30302;BME280;17111;52.130;5.028;2023-05-27T08:02:14;102934.56;;;20.69;46.15
30302;BME280;17111;52.130;5.028;2023-05-27T08:04:41;102935.31;;;20.71;46.12
30302;BME280;17111;52.130;5.028;2023-05-27T08:07:10;102928.09;;;20.72;45.86
30302;BME280;17111;52.130;5.028;2023-05-27T08:09:37;102932.50;;;20.73;46.24
30302;BME280;17111;52.130;5.028;2023-05-27T08:12:03;102923.41;;;20.74;45.86
30302;BME280;17111;52.130;5.028;2023-05-27T08:14:33;102927.84;;;20.75;46.38
30302;BME280;17111;52.130;5.028;2023-05-27T08:17:00;102923.31;;;20.75;45.76
30302;BME280;17111;52.130;5.028;2023-05-27T08:19:28;102922.19;;;20.78;46.02
30302;BME280;17111;52.130;5.028;2023-05-27T08:21:56;102910.56;;;20.77;46.00
30302;BME280;17111;52.130;5.028;2023-05-27T08:24:23;102907.63;;;20.80;46.13
30302;BME280;17111;52.130;5.028;2023-05-27T08:26:50;102909.34;;;20.81;46.24
30302;BME280;17111;52.130;5.028;2023-05-27T08:29:17;102907.50;;;20.82;45.61
30302;BME280;17111;52.130;5.028;2023-05-27T08:31:44;102907.41;;;20.83;45.67
30302;BME280;17111;52.130;5.028;2023-05-27T08:34:10;102897.47;;;20.84;45.92
30302;BME280;17111;52.130;5.028;2023-05-27T08:36:37;102900.88;;;20.86;45.89
30302;BME280;17111;52.130;5.028;2023-05-27T08:39:04;102899.94;;;20.87;45.76
30302;BME280;17111;52.130;5.028;2023-05-27T08:41:31;102891.84;;;20.87;45.08
30302;BME280;17111;52.130;5.028;2023-05-27T08:43:59;102892.69;;;20.87;45.52
30302;BME280;17111;52.130;5.028;2023-05-27T08:46:48;102890.72;;;20.89;45.01
30302;BME280;17111;52.130;5.028;2023-05-27T08:49:18;102885.22;;;20.91;45.28
30302;BME280;17111;52.130;5.028;2023-05-27T08:51:45;102879.69;;;20.92;45.23
30302;BME280;17111;52.130;5.028;2023-05-27T08:54:12;102879.69;;;20.92;45.65
30302;BME280;17111;52.130;5.028;2023-05-27T08:56:40;102866.97;;;20.94;45.32
30302;BME280;17111;52.130;5.028;2023-05-27T08:59:07;102862.44;;;20.95;45.17
30302;BME280;17111;52.130;5.028;2023-05-27T09:01:34;102855.91;;;20.98;45.10
30302;BME280;17111;52.130;5.028;2023-05-27T09:04:02;102859.34;;;21.00;45.29
30302;BME280;17111;52.130;5.028;2023-05-27T09:06:29;102862.78;;;21.02;44.87
30302;BME280;17111;52.130;5.028;2023-05-27T09:08:55;102858.13;;;21.04;45.00
30302;BME280;17111;52.130;5.028;2023-05-27T09:11:23;102855.19;;;21.07;44.97
30302;BME280;17111;52.130;5.028;2023-05-27T09:13:54;102851.50;;;21.08;44.80
30302;BME280;17111;52.130;5.028;2023-05-27T09:16:22;102855.75;;;21.10;44.80
30302;BME280;17111;52.130;5.028;2023-05-27T09:18:49;102846.59;;;21.13;44.45
30302;BME280;17111;52.130;5.028;2023-05-27T09:21:16;102848.19;;;21.15;44.29
30302;BME280;17111;52.130;5.028;2023-05-27T09:23:43;102838.84;;;21.19;44.33
30302;BME280;17111;52.130;5.028;2023-05-27T09:26:11;102843.13;;;21.22;43.87
30302;BME280;17111;52.130;5.028;2023-05-27T09:28:38;102839.06;;;21.28;44.31
30302;BME280;17111;52.130;5.028;2023-05-27T09:31:07;102841.53;;;21.31;43.78
30302;BME280;17111;52.130;5.028;2023-05-27T09:33:37;102833.94;;;21.36;44.01
30302;BME280;17111;52.130;5.028;2023-05-27T09:36:06;102830.84;;;21.40;43.84
30302;BME280;17111;52.130;5.028;2023-05-27T09:38:34;102836.84;;;21.44;43.86
30302;BME280;17111;52.130;5.028;2023-05-27T09:41:02;102831.06;;;21.49;43.55
30302;BME280;17111;52.130;5.028;2023-05-27T09:43:29;102835.22;;;21.53;43.26
30302;BME280;17111;52.130;5.028;2023-05-27T09:46:07;102837.53;;;21.57;43.06
30302;BME280;17111;52.130;5.028;2023-05-27T09:48:34;102830.91;;;21.61;43.29
30302;BME280;17111;52.130;5.028;2023-05-27T09:51:03;102832.34;;;21.65;43.23
30302;BME280;17111;52.130;5.028;2023-05-27T09:53:30;102828.41;;;21.69;43.26
30302;BME280;17111;52.130;5.028;2023-05-27T09:55:57;102829.00;;;21.73;43.21
30302;BME280;17111;52.130;5.028;2023-05-27T09:58:24;102818.94;;;21.75;43.07
30302;BME280;17111;52.130;5.028;2023-05-27T10:00:51;102820.41;;;21.79;43.21
30302;BME280;17111;52.130;5.028;2023-05-27T10:03:21;102820.97;;;21.83;43.08
30302;BME280;17111;52.130;5.028;2023-05-27T10:05:50;102805.50;;;21.85;42.93
30302;BME280;17111;52.130;5.028;2023-05-27T10:08:18;102809.53;;;21.90;42.70
30302;BME280;17111;52.130;5.028;2023-05-27T10:10:52;102804.84;;;21.92;42.83
30302;BME280;17111;52.130;5.028;2023-05-27T10:13:20;102801.06;;;21.95;42.93
30302;BME280;17111;52.130;5.028;2023-05-27T10:15:51;102797.22;;;21.98;42.68
30302;BME280;17111;52.130;5.028;2023-05-27T10:18:29;102801.50;;;22.00;42.59
30302;BME280;17111;52.130;5.028;2023-05-27T10:20:57;102793.16;;;22.03;42.30
30302;BME280;17111;52.130;5.028;2023-05-27T10:23:26;102797.41;;;22.06;42.62
30302;BME280;17111;52.130;5.028;2023-05-27T10:25:55;102787.34;;;22.08;42.62
30302;BME280;17111;52.130;5.028;2023-05-27T10:28:31;102790.75;;;22.10;42.60
30302;BME280;17111;52.130;5.028;2023-05-27T10:31:04;102786.94;;;22.12;42.57
30302;BME280;17111;52.130;5.028;2023-05-27T10:33:43;102778.72;;;22.14;42.53
30302;BME280;17111;52.130;5.028;2023-05-27T10:36:15;102781.16;;;22.17;42.23
30302;BME280;17111;52.130;5.028;2023-05-27T10:38:43;102784.56;;;22.19;42.63
30302;BME280;17111;52.130;5.028;2023-05-27T10:41:10;102776.22;;;22.22;42.50
30302;BME280;17111;52.130;5.028;2023-05-27T10:43:37;102776.09;;;22.24;42.29
30302;BME280;17111;52.130;5.028;2023-05-27T10:46:07;102768.69;;;22.26;42.00
30302;BME280;17111;52.130;5.028;2023-05-27T10:48:34;102766.72;;;22.28;42.18
30302;BME280;17111;52.130;5.028;2023-05-27T10:51:01;102764.72;;;22.30;42.01
30302;BME280;17111;52.130;5.028;2023-05-27T10:53:29;102751.97;;;22.32;42.00
30302;BME280;17111;52.130;5.028;2023-05-27T10:55:59;102743.56;;;22.35;41.56
30302;BME280;17111;52.130;5.028;2023-05-27T10:58:27;102738.88;;;22.37;41.76
30302;BME280;17111;52.130;5.028;2023-05-27T11:00:54;102737.88;;;22.38;41.84
30302;BME280;17111;52.130;5.028;2023-05-27T11:03:24;102744.03;;;22.40;41.63
30302;BME280;17111;52.130;5.028;2023-05-27T11:05:58;102736.63;;;22.42;41.86
30302;BME280;17111;52.130;5.028;2023-05-27T11:08:25;102727.50;;;22.43;41.99
30302;BME280;17111;52.130;5.028;2023-05-27T11:11:07;102724.53;;;22.46;41.82
30302;BME280;17111;52.130;5.028;2023-05-27T11:13:42;102719.03;;;22.48;41.81
30302;BME280;17111;52.130;5.028;2023-05-27T11:16:14;102722.44;;;22.50;41.74
30302;BME280;17111;52.130;5.028;2023-05-27T11:18:44;102710.63;;;22.51;41.95
30302;BME280;17111;52.130;5.028;2023-05-27T11:21:12;102709.66;;;22.52;41.49
30302;BME280;17111;52.130;5.028;2023-05-27T11:23:47;102715.75;;;22.54;41.57
30302;BME280;17111;52.130;5.028;2023-05-27T11:26:22;102702.13;;;22.55;41.29
30302;BME280;17111;52.130;5.028;2023-05-27T11:28:50;102706.38;;;22.58;41.61
30302;BME280;17111;52.130;5.028;2023-05-27T11:31:18;102704.41;;;22.60;41.74
30302;BME280;17111;52.130;5.028;2023-05-27T11:33:49;102696.16;;;22.61;41.51
30302;BME280;17111;52.130;5.028;2023-05-27T11:36:17;102684.34;;;22.62;41.27
30302;BME280;17111;52.130;5.028;2023-05-27T11:38:58;102686.91;;;22.64;41.48
30302;BME280;17111;52.130;5.028;2023-05-27T11:41:27;102674.94;;;22.66;41.12
30302;BME280;17111;52.130;5.028;2023-05-27T11:43:56;102673.09;;;22.67;41.55
30302;BME280;17111;52.130;5.028;2023-05-27T11:46:33;102662.16;;;22.69;41.45
30302;BME280;17111;52.130;5.028;2023-05-27T11:49:00;102670.00;;;22.72;41.28
30302;BME280;17111;52.130;5.028;2023-05-27T11:51:27;102662.75;;;22.72;41.42
30302;BME280;17111;52.130;5.028;2023-05-27T11:53:57;102659.03;;;22.73;41.51
30302;BME280;17111;52.130;5.028;2023-05-27T11:56:24;102662.44;;;22.75;41.13
30302;BME280;17111;52.130;5.028;2023-05-27T11:58:51;102653.34;;;22.76;41.25
30302;BME280;17111;52.130;5.028;2023-05-27T12:01:18;102652.34;;;22.77;41.47
30302;BME280;17111;52.130;5.028;2023-05-27T12:03:45;102644.09;;;22.79;41.24
30302;BME280;17111;52.130;5.028;2023-05-27T12:06:12;102638.69;;;22.79;40.96
30302;BME280;17111;52.130;5.028;2023-05-27T12:08:38;102633.16;;;22.80;41.02
30302;BME280;17111;52.130;5.028;2023-05-27T12:11:05;102637.56;;;22.81;40.96
30302;BME280;17111;52.130;5.028;2023-05-27T12:13:31;102635.69;;;22.82;40.75
30302;BME280;17111;52.130;5.028;2023-05-27T12:15:58;102640.09;;;22.83;40.88
30302;BME280;17111;52.130;5.028;2023-05-27T12:18:25;102638.25;;;22.83;40.86
30302;BME280;17111;52.130;5.028;2023-05-27T12:20:52;102620.22;;;22.84;40.68
30302;BME280;17111;52.130;5.028;2023-05-27T12:23:18;102617.34;;;22.85;40.44
30302;BME280;17111;52.130;5.028;2023-05-27T12:25:45;102619.19;;;22.85;40.89
30302;BME280;17111;52.130;5.028;2023-05-27T12:28:12;102613.78;;;22.85;40.90
30302;BME280;17111;52.130;5.028;2023-05-27T12:30:38;102615.50;;;22.86;40.88
30302;BME280;17111;52.130;5.028;2023-05-27T12:33:06;102612.78;;;22.86;40.81
30302;BME280;17111;52.130;5.028;2023-05-27T12:35:33;102615.50;;;22.86;40.86
30302;BME280;17111;52.130;5.028;2023-05-27T12:38:00;102609.97;;;22.87;40.64
30302;BME280;17111;52.130;5.028;2023-05-27T12:40:27;102605.53;;;22.86;40.86
30302;BME280;17111;52.130;5.028;2023-05-27T12:42:54;102598.41;;;22.85;40.70
30302;BME280;17111;52.130;5.028;2023-05-27T12:45:21;102600.13;;;22.86;40.73
30302;BME280;17111;52.130;5.028;2023-05-27T12:47:52;102600.13;;;22.86;40.67
30302;BME280;17111;52.130;5.028;2023-05-27T12:50:20;102598.41;;;22.85;40.92
30302;BME280;17111;52.130;5.028;2023-05-27T12:52:47;102610.25;;;22.84;40.87
30302;BME280;17111;52.130;5.028;2023-05-27T12:55:14;102602.25;;;22.83;41.31
30302;BME280;17111;52.130;5.028;2023-05-27T12:57:48;102593.28;;;22.82;41.22